sensor_id;sensor_type;location;lat;lon;timestamp;pressure;altitude;pressure_sealevel;temperature;humidity
21361;BME280;10839;43.206;23.550;2023-12-20T00:00:02;97366.13;;;6.08;93.07
21361;BME280;10839;43.206;23.550;2023-12-20T00:02:30;97358.81;;;6.10;92.66
21361;BME280;10839;43.206;23.550;2023-12-20T00:04:55;97352.06;;;5.98;93.12
21361;BME280;10839;43.206;23.550;2023-12-20T00:07:21;97346.38;;;5.93;93.70
21361;BME280;10839;43.206;23.550;2023-12-20T00:09:46;97352.41;;;5.95;93.37
21361;BME280;10839;43.206;23.550;2023-12-20T00:12:12;97344.06;;;5.98;92.81
21361;BME280;10839;43.206;23.550;2023-12-20T00:14:37;97348.69;;;5.88;93.32
21361;BME280;10839;43.206;23.550;2023-12-20T00:17:03;97338.97;;;5.79;94.22
21361;BME280;10839;43.206;23.550;2023-12-20T00:19:28;97347.56;;;5.65;95.30
21361;BME280;10839;43.206;23.550;2023-12-20T00:21:54;97347.84;;;5.54;96.59
21361;BME280;10839;43.206;23.550;2023-12-20T00:24:19;97342.97;;;5.49;97.26
21361;BME280;10839;43.206;23.550;2023-12-20T00:26:45;97345.59;;;5.41;98.21
21361;BME280;10839;43.206;23.550;2023-12-20T00:29:12;97339.66;;;5.47;97.55
21361;BME280;10839;43.206;23.550;2023-12-20T00:31:37;97336.88;;;5.31;98.35
21361;BME280;10839;43.206;23.550;2023-12-20T00:34:06;97343.09;;;5.40;97.99
21361;BME280;10839;43.206;23.550;2023-12-20T00:36:31;97335.41;;;5.37;97.74
21361;BME280;10839;43.206;23.550;2023-12-20T00:38:57;97335.13;;;5.48;96.76
21361;BME280;10839;43.206;23.550;2023-12-20T00:41:22;97339.44;;;5.41;96.95
21361;BME280;10839;43.206;23.550;2023-12-20T00:43:47;97333.63;;;5.45;96.81
21361;BME280;10839;43.206;23.550;2023-12-20T00:46:14;97317.13;;;5.50;95.96
21361;BME280;10839;43.206;23.550;2023-12-20T00:48:39;97321.53;;;5.59;95.08
21361;BME280;10839;43.206;23.550;2023-12-20T00:51:07;97320.22;;;5.71;94.34
21361;BME280;10839;43.206;23.550;2023-12-20T00:53:33;97297.63;;;5.83;92.80
21361;BME280;10839;43.206;23.550;2023-12-20T00:55:58;97301.25;;;5.82;92.68
21361;BME280;10839;43.206;23.550;2023-12-20T00:58:24;97302.75;;;5.76;93.05
21361;BME280;10839;43.206;23.550;2023-12-20T01:00:49;97292.28;;;5.83;92.92
21361;BME280;10839;43.206;23.550;2023-12-20T01:03:15;97288.63;;;5.84;92.88
21361;BME280;10839;43.206;23.550;2023-12-20T01:05:40;97286.94;;;5.83;93.02
21361;BME280;10839;43.206;23.550;2023-12-20T01:08:06;97291.31;;;5.92;92.44
21361;BME280;10839;43.206;23.550;2023-12-20T01:10:31;97277.63;;;5.87;92.34
21361;BME280;10839;43.206;23.550;2023-12-20T01:12:57;97285.34;;;5.72;92.96
21361;BME280;10839;43.206;23.550;2023-12-20T01:15:22;97273.50;;;5.59;93.62
21361;BME280;10839;43.206;23.550;2023-12-20T01:17:48;97274.13;;;5.61;93.54
21361;BME280;10839;43.206;23.550;2023-12-20T01:20:14;97258.09;;;5.53;94.42
21361;BME280;10839;43.206;23.550;2023-12-20T01:22:40;97269.75;;;5.44;94.95
21361;BME280;10839;43.206;23.550;2023-12-20T01:25:08;97270.91;;;5.41;95.87
21361;BME280;10839;43.206;23.550;2023-12-20T01:27:33;97266.25;;;5.43;96.52
21361;BME280;10839;43.206;23.550;2023-12-20T01:29:59;97263.38;;;5.37;97.01
21361;BME280;10839;43.206;23.550;2023-12-20T01:32:24;97264.69;;;5.33;97.47
21361;BME280;10839;43.206;23.550;2023-12-20T01:34:49;97261.59;;;5.45;97.08
21361;BME280;10839;43.206;23.550;2023-12-20T01:37:15;97263.25;;;5.46;96.94
21361;BME280;10839;43.206;23.550;2023-12-20T01:39:40;97253.38;;;5.31;98.05
21361;BME280;10839;43.206;23.550;2023-12-20T01:42:06;97245.19;;;5.32;98.39
21361;BME280;10839;43.206;23.550;2023-12-20T01:44:31;97228.78;;;5.19;98.93
21361;BME280;10839;43.206;23.550;2023-12-20T01:46:57;97241.31;;;5.27;98.90
21361;BME280;10839;43.206;23.550;2023-12-20T01:49:22;97222.81;;;5.25;99.60
21361;BME280;10839;43.206;23.550;2023-12-20T01:51:49;97218.63;;;5.22;99.95
21361;BME280;10839;43.206;23.550;2023-12-20T01:54:19;97218.94;;;5.19;100.00
21361;BME280;10839;43.206;23.550;2023-12-20T01:56:45;97207.59;;;5.17;99.99
21361;BME280;10839;43.206;23.550;2023-12-20T01:59:11;97209.31;;;5.27;99.53
21361;BME280;10839;43.206;23.550;2023-12-20T02:01:36;97204.63;;;5.20;100.00
21361;BME280;10839;43.206;23.550;2023-12-20T02:04:02;97212.34;;;5.32;98.70
21361;BME280;10839;43.206;23.550;2023-12-20T02:06:30;97190.50;;;5.28;97.95
21361;BME280;10839;43.206;23.550;2023-12-20T02:08:58;97200.94;;;5.13;99.52
21361;BME280;10839;43.206;23.550;2023-12-20T02:11:25;97192.94;;;5.13;99.11
21361;BME280;10839;43.206;23.550;2023-12-20T02:13:50;97200.59;;;5.08;99.25
21361;BME280;10839;43.206;23.550;2023-12-20T02:16:16;97187.03;;;5.36;96.41
21361;BME280;10839;43.206;23.550;2023-12-20T02:18:43;97182.41;;;5.54;93.82
21361;BME280;10839;43.206;23.550;2023-12-20T02:21:09;97178.22;;;5.51;93.26
21361;BME280;10839;43.206;23.550;2023-12-20T02:23:35;97182.38;;;5.46;93.33
21361;BME280;10839;43.206;23.550;2023-12-20T02:26:00;97168.38;;;5.52;92.74
21361;BME280;10839;43.206;23.550;2023-12-20T02:28:26;97173.75;;;5.60;91.59
21361;BME280;10839;43.206;23.550;2023-12-20T02:30:52;97166.09;;;5.81;90.62
21361;BME280;10839;43.206;23.550;2023-12-20T02:33:17;97159.47;;;5.85;89.86
21361;BME280;10839;43.206;23.550;2023-12-20T02:35:42;97155.06;;;5.76;89.47
21361;BME280;10839;43.206;23.550;2023-12-20T02:38:08;97157.13;;;5.98;88.10
21361;BME280;10839;43.206;23.550;2023-12-20T02:40:33;97151.97;;;5.88;87.91
21361;BME280;10839;43.206;23.550;2023-12-20T02:42:59;97154.47;;;5.90;88.15
21361;BME280;10839;43.206;23.550;2023-12-20T02:45:26;97141.09;;;5.82;88.58
21361;BME280;10839;43.206;23.550;2023-12-20T02:47:51;97142.22;;;5.63;89.36
21361;BME280;10839;43.206;23.550;2023-12-20T02:50:17;97152.75;;;5.73;88.64
21361;BME280;10839;43.206;23.550;2023-12-20T02:52:44;97150.75;;;5.67;89.23
21361;BME280;10839;43.206;23.550;2023-12-20T02:55:10;97148.41;;;5.80;88.40
21361;BME280;10839;43.206;23.550;2023-12-20T02:57:35;97141.03;;;5.66;88.64
21361;BME280;10839;43.206;23.550;2023-12-20T03:00:01;97137.41;;;5.67;88.86
21361;BME280;10839;43.206;23.550;2023-12-20T03:02:27;97129.22;;;5.68;88.55
21361;BME280;10839;43.206;23.550;2023-12-20T03:04:52;97129.91;;;5.78;87.96
21361;BME280;10839;43.206;23.550;2023-12-20T03:07:18;97124.56;;;5.78;88.05
21361;BME280;10839;43.206;23.550;2023-12-20T03:09:43;97119.41;;;5.85;87.63
21361;BME280;10839;43.206;23.550;2023-12-20T03:12:09;97112.69;;;5.81;88.16
21361;BME280;10839;43.206;23.550;2023-12-20T03:14:34;97103.41;;;5.85;87.93
21361;BME280;10839;43.206;23.550;2023-12-20T03:17:00;97113.75;;;5.88;87.39
21361;BME280;10839;43.206;23.550;2023-12-20T03:19:25;97105.06;;;5.86;87.51
21361;BME280;10839;43.206;23.550;2023-12-20T03:21:51;97112.09;;;5.87;87.65
21361;BME280;10839;43.206;23.550;2023-12-20T03:24:18;97107.09;;;5.84;88.30
21361;BME280;10839;43.206;23.550;2023-12-20T03:26:44;97107.09;;;5.92;87.44
21361;BME280;10839;43.206;23.550;2023-12-20T03:29:09;97103.06;;;5.88;87.32
21361;BME280;10839;43.206;23.550;2023-12-20T03:31:35;97101.75;;;5.84;87.60
21361;BME280;10839;43.206;23.550;2023-12-20T03:34:00;97103.41;;;5.85;87.95
21361;BME280;10839;43.206;23.550;2023-12-20T03:36:26;97095.69;;;5.82;87.71
21361;BME280;10839;43.206;23.550;2023-12-20T03:38:51;97092.03;;;5.91;87.32
21361;BME280;10839;43.206;23.550;2023-12-20T03:41:17;97100.06;;;5.99;87.01
21361;BME280;10839;43.206;23.550;2023-12-20T03:43:42;97093.75;;;5.84;87.76
21361;BME280;10839;43.206;23.550;2023-12-20T03:46:08;97088.03;;;5.95;86.99
21361;BME280;10839;43.206;23.550;2023-12-20T03:48:34;97078.69;;;5.83;87.40
21361;BME280;10839;43.206;23.550;2023-12-20T03:50:59;97074.03;;;5.85;87.66
21361;BME280;10839;43.206;23.550;2023-12-20T03:53:25;97078.69;;;5.83;87.63
21361;BME280;10839;43.206;23.550;2023-12-20T03:55:50;97078.00;;;5.81;87.93
21361;BME280;10839;43.206;23.550;2023-12-20T03:58:16;97068.03;;;5.83;87.25
21361;BME280;10839;43.206;23.550;2023-12-20T04:00:41;97077.72;;;5.92;87.21
21361;BME280;10839;43.206;23.550;2023-12-20T04:03:07;97070.81;;;5.81;87.40
21361;BME280;10839;43.206;23.550;2023-12-20T04:05:32;97066.03;;;5.85;87.35
21361;BME280;10839;43.206;23.550;2023-12-20T04:07:59;97071.34;;;5.93;86.45
21361;BME280;10839;43.206;23.550;2023-12-20T04:10:24;97061.00;;;5.82;86.76
21361;BME280;10839;43.206;23.550;2023-12-20T04:12:50;97062.34;;;5.86;87.23
21361;BME280;10839;43.206;23.550;2023-12-20T04:15:15;97053.34;;;5.87;87.10
21361;BME280;10839;43.206;23.550;2023-12-20T04:17:41;97051.31;;;5.81;87.64
21361;BME280;10839;43.206;23.550;2023-12-20T04:20:07;97051.81;;;5.76;87.53
21361;BME280;10839;43.206;23.550;2023-12-20T04:22:32;97050.31;;;5.74;87.94
21361;BME280;10839;43.206;23.550;2023-12-20T04:24:58;97057.97;;;5.61;89.25
21361;BME280;10839;43.206;23.550;2023-12-20T04:27:23;97040.16;;;5.45;90.33
21361;BME280;10839;43.206;23.550;2023-12-20T04:29:49;97043.50;;;5.55;89.67
21361;BME280;10839;43.206;23.550;2023-12-20T04:32:14;97046.63;;;5.51;90.55
21361;BME280;10839;43.206;23.550;2023-12-20T04:34:40;97036.31;;;5.64;90.04
21361;BME280;10839;43.206;23.550;2023-12-20T04:37:05;97036.28;;;5.56;90.44
21361;BME280;10839;43.206;23.550;2023-12-20T04:39:31;97032.31;;;5.52;91.07
21361;BME280;10839;43.206;23.550;2023-12-20T04:41:56;97034.31;;;5.50;91.00
21361;BME280;10839;43.206;23.550;2023-12-20T04:44:22;97026.63;;;5.39;91.96
21361;BME280;10839;43.206;23.550;2023-12-20T04:46:47;97033.97;;;5.37;92.46
21361;BME280;10839;43.206;23.550;2023-12-20T04:49:13;97032.94;;;5.46;91.78
21361;BME280;10839;43.206;23.550;2023-12-20T04:51:38;97027.44;;;5.39;92.04
21361;BME280;10839;43.206;23.550;2023-12-20T04:54:04;97019.28;;;5.24;92.82
21361;BME280;10839;43.206;23.550;2023-12-20T04:56:29;97015.47;;;5.35;92.10
21361;BME280;10839;43.206;23.550;2023-12-20T04:58:55;97018.81;;;5.37;92.04
21361;BME280;10839;43.206;23.550;2023-12-20T05:01:20;97023.28;;;5.37;90.93
21361;BME280;10839;43.206;23.550;2023-12-20T05:03:46;97022.94;;;5.56;89.30
21361;BME280;10839;43.206;23.550;2023-12-20T05:06:12;97012.94;;;5.66;88.77
21361;BME280;10839;43.206;23.550;2023-12-20T05:08:37;97008.94;;;5.70;87.82
21361;BME280;10839;43.206;23.550;2023-12-20T05:11:03;96999.63;;;5.74;87.82
21361;BME280;10839;43.206;23.550;2023-12-20T05:13:29;97003.94;;;5.75;86.88
21361;BME280;10839;43.206;23.550;2023-12-20T05:15:55;96990.59;;;5.75;86.20
21361;BME280;10839;43.206;23.550;2023-12-20T05:18:21;97005.59;;;5.76;86.33
21361;BME280;10839;43.206;23.550;2023-12-20T05:20:47;97008.94;;;5.86;85.38
21361;BME280;10839;43.206;23.550;2023-12-20T05:23:12;97003.78;;;5.84;85.22
21361;BME280;10839;43.206;23.550;2023-12-20T05:25:38;96988.59;;;5.85;84.92
21361;BME280;10839;43.206;23.550;2023-12-20T05:28:04;96986.25;;;5.82;84.51
21361;BME280;10839;43.206;23.550;2023-12-20T05:30:30;96986.59;;;5.95;83.92
21361;BME280;10839;43.206;23.550;2023-12-20T05:32:55;96992.25;;;6.00;83.61
21361;BME280;10839;43.206;23.550;2023-12-20T05:35:22;96988.53;;;6.09;82.26
21361;BME280;10839;43.206;23.550;2023-12-20T05:37:49;96987.38;;;6.11;82.47
21361;BME280;10839;43.206;23.550;2023-12-20T05:40:14;96982.88;;;6.12;82.01
21361;BME280;10839;43.206;23.550;2023-12-20T05:42:40;96983.50;;;6.22;81.74
21361;BME280;10839;43.206;23.550;2023-12-20T05:45:05;96983.16;;;6.25;81.12
21361;BME280;10839;43.206;23.550;2023-12-20T05:47:31;96980.09;;;6.36;80.32
21361;BME280;10839;43.206;23.550;2023-12-20T05:49:56;96990.44;;;6.39;80.00
21361;BME280;10839;43.206;23.550;2023-12-20T05:52:22;96979.47;;;6.26;80.91
21361;BME280;10839;43.206;23.550;2023-12-20T05:54:47;96967.50;;;6.22;81.27
21361;BME280;10839;43.206;23.550;2023-12-20T05:57:13;96968.75;;;6.34;81.37
21361;BME280;10839;43.206;23.550;2023-12-20T05:59:38;96972.41;;;6.41;80.93
21361;BME280;10839;43.206;23.550;2023-12-20T06:02:05;96972.38;;;6.49;79.96
21361;BME280;10839;43.206;23.550;2023-12-20T06:04:30;96961.84;;;6.47;79.84
21361;BME280;10839;43.206;23.550;2023-12-20T06:06:56;96960.41;;;6.37;80.85
21361;BME280;10839;43.206;23.550;2023-12-20T06:09:21;96962.16;;;6.53;80.83
21361;BME280;10839;43.206;23.550;2023-12-20T06:11:47;96956.03;;;6.44;81.06
21361;BME280;10839;43.206;23.550;2023-12-20T06:14:12;96959.97;;;6.56;80.67
21361;BME280;10839;43.206;23.550;2023-12-20T06:16:38;96946.56;;;6.64;80.79
21361;BME280;10839;43.206;23.550;2023-12-20T06:19:03;96958.13;;;8.65;74.41
21361;BME280;10839;43.206;23.550;2023-12-20T06:21:29;96942.69;;;10.27;65.41
21361;BME280;10839;43.206;23.550;2023-12-20T06:23:54;96945.53;;;11.14;62.13
21361;BME280;10839;43.206;23.550;2023-12-20T06:26:20;96950.19;;;11.59;59.94
21361;BME280;10839;43.206;23.550;2023-12-20T06:28:45;96957.84;;;12.98;56.20
21361;BME280;10839;43.206;23.550;2023-12-20T06:31:11;96948.34;;;13.33;53.31
21361;BME280;10839;43.206;23.550;2023-12-20T06:33:38;96962.22;;;13.43;52.53
21361;BME280;10839;43.206;23.550;2023-12-20T06:36:06;96957.75;;;13.86;52.17
21361;BME280;10839;43.206;23.550;2023-12-20T06:38:32;96949.28;;;14.50;50.35
21361;BME280;10839;43.206;23.550;2023-12-20T06:40:57;96946.66;;;14.97;48.24
21361;BME280;10839;43.206;23.550;2023-12-20T06:43:24;96957.16;;;15.83;46.05
21361;BME280;10839;43.206;23.550;2023-12-20T06:45:49;96957.34;;;17.03;42.11
21361;BME280;10839;43.206;23.550;2023-12-20T06:48:14;96936.00;;;16.49;43.64
21361;BME280;10839;43.206;23.550;2023-12-20T06:50:40;96943.75;;;16.11;43.27
21361;BME280;10839;43.206;23.550;2023-12-20T06:53:06;96927.50;;;16.57;42.18
21361;BME280;10839;43.206;23.550;2023-12-20T06:55:35;96936.06;;;16.89;41.27
21361;BME280;10839;43.206;23.550;2023-12-20T06:58:03;96927.25;;;16.70;40.57
21361;BME280;10839;43.206;23.550;2023-12-20T07:00:28;96929.06;;;17.04;40.04
21361;BME280;10839;43.206;23.550;2023-12-20T07:02:54;96931.84;;;17.21;38.98
21361;BME280;10839;43.206;23.550;2023-12-20T07:05:19;96928.97;;;17.83;38.64
21361;BME280;10839;43.206;23.550;2023-12-20T07:07:48;96928.41;;;17.25;39.55
21361;BME280;10839;43.206;23.550;2023-12-20T07:10:13;96924.47;;;18.06;38.41
21361;BME280;10839;43.206;23.550;2023-12-20T07:12:39;96927.66;;;17.69;38.43
21361;BME280;10839;43.206;23.550;2023-12-20T07:15:05;96927.00;;;17.79;38.58
21361;BME280;10839;43.206;23.550;2023-12-20T07:17:34;96932.00;;;17.42;38.38
21361;BME280;10839;43.206;23.550;2023-12-20T07:20:00;96927.25;;;17.77;38.22
21361;BME280;10839;43.206;23.550;2023-12-20T07:22:29;96932.94;;;17.93;37.70
21361;BME280;10839;43.206;23.550;2023-12-20T07:25:00;96908.03;;;18.17;37.85
21361;BME280;10839;43.206;23.550;2023-12-20T07:27:26;96919.56;;;17.74;38.22
21361;BME280;10839;43.206;23.550;2023-12-20T07:29:52;96919.75;;;18.34;36.93
21361;BME280;10839;43.206;23.550;2023-12-20T07:32:17;96926.50;;;17.99;37.06
21361;BME280;10839;43.206;23.550;2023-12-20T07:34:43;96917.94;;;18.07;37.46
21361;BME280;10839;43.206;23.550;2023-12-20T07:37:09;96909.81;;;18.28;37.00
21361;BME280;10839;43.206;23.550;2023-12-20T07:39:37;96912.34;;;18.30;36.86
21361;BME280;10839;43.206;23.550;2023-12-20T07:42:03;96910.34;;;18.42;36.58
21361;BME280;10839;43.206;23.550;2023-12-20T07:44:28;96915.25;;;19.21;35.95
21361;BME280;10839;43.206;23.550;2023-12-20T07:46:54;96903.56;;;19.04;35.68
21361;BME280;10839;43.206;23.550;2023-12-20T07:49:19;96898.41;;;18.10;37.16
21361;BME280;10839;43.206;23.550;2023-12-20T07:51:45;96906.47;;;16.18;40.28
21361;BME280;10839;43.206;23.550;2023-12-20T07:54:10;96903.28;;;15.98;41.27
21361;BME280;10839;43.206;23.550;2023-12-20T07:56:36;96904.81;;;16.40;40.43
21361;BME280;10839;43.206;23.550;2023-12-20T07:59:01;96904.84;;;16.17;41.12
21361;BME280;10839;43.206;23.550;2023-12-20T08:01:27;96903.38;;;16.72;40.40
21361;BME280;10839;43.206;23.550;2023-12-20T08:03:52;96894.66;;;16.70;39.94
21361;BME280;10839;43.206;23.550;2023-12-20T08:06:18;96891.28;;;15.53;42.55
21361;BME280;10839;43.206;23.550;2023-12-20T08:08:43;96896.97;;;15.03;43.48
21361;BME280;10839;43.206;23.550;2023-12-20T08:11:09;96894.38;;;14.79;44.08
21361;BME280;10839;43.206;23.550;2023-12-20T08:13:34;96894.16;;;14.62;45.62
21361;BME280;10839;43.206;23.550;2023-12-20T08:16:00;96885.19;;;14.01;46.39
21361;BME280;10839;43.206;23.550;2023-12-20T08:18:27;96882.13;;;13.73;47.69
21361;BME280;10839;43.206;23.550;2023-12-20T08:20:53;96882.25;;;13.60;47.95
21361;BME280;10839;43.206;23.550;2023-12-20T08:23:19;96882.91;;;13.31;47.69
21361;BME280;10839;43.206;23.550;2023-12-20T08:25:45;96880.88;;;13.20;49.38
21361;BME280;10839;43.206;23.550;2023-12-20T08:28:11;96880.44;;;13.23;48.16
21361;BME280;10839;43.206;23.550;2023-12-20T08:30:36;96865.81;;;13.06;48.96
21361;BME280;10839;43.206;23.550;2023-12-20T08:33:02;96866.88;;;12.54;50.90
21361;BME280;10839;43.206;23.550;2023-12-20T08:35:28;96862.53;;;12.46;51.52
21361;BME280;10839;43.206;23.550;2023-12-20T08:37:53;96857.47;;;12.63;51.47
21361;BME280;10839;43.206;23.550;2023-12-20T08:40:18;96847.31;;;13.03;50.51
21361;BME280;10839;43.206;23.550;2023-12-20T08:42:45;96855.25;;;12.91;51.35
21361;BME280;10839;43.206;23.550;2023-12-20T08:45:11;96842.66;;;12.78;51.41
21361;BME280;10839;43.206;23.550;2023-12-20T08:47:36;96839.13;;;12.78;51.40
21361;BME280;10839;43.206;23.550;2023-12-20T08:50:02;96841.22;;;12.76;51.62
21361;BME280;10839;43.206;23.550;2023-12-20T08:52:28;96842.13;;;12.63;51.63
21361;BME280;10839;43.206;23.550;2023-12-20T08:54:54;96840.00;;;12.72;52.69
21361;BME280;10839;43.206;23.550;2023-12-20T08:57:20;96824.81;;;12.77;52.66
21361;BME280;10839;43.206;23.550;2023-12-20T08:59:50;96831.72;;;12.67;51.91
21361;BME280;10839;43.206;23.550;2023-12-20T09:02:16;96833.72;;;12.78;51.50
21361;BME280;10839;43.206;23.550;2023-12-20T09:04:42;96826.28;;;12.73;52.27
21361;BME280;10839;43.206;23.550;2023-12-20T09:07:21;96815.03;;;11.62;53.56
21361;BME280;10839;43.206;23.550;2023-12-20T09:09:46;96826.13;;;12.24;52.13
21361;BME280;10839;43.206;23.550;2023-12-20T09:12:12;96802.44;;;12.26;52.40
21361;BME280;10839;43.206;23.550;2023-12-20T09:14:37;96802.13;;;12.47;52.02
21361;BME280;10839;43.206;23.550;2023-12-20T09:17:03;96803.72;;;12.61;52.26
21361;BME280;10839;43.206;23.550;2023-12-20T09:19:28;96793.88;;;12.73;51.37
21361;BME280;10839;43.206;23.550;2023-12-20T09:21:55;96792.66;;;12.69;51.04
21361;BME280;10839;43.206;23.550;2023-12-20T09:24:20;96793.31;;;12.96;50.17
21361;BME280;10839;43.206;23.550;2023-12-20T09:26:46;96783.88;;;13.36;49.68
21361;BME280;10839;43.206;23.550;2023-12-20T09:29:11;96783.00;;;13.85;48.32
21361;BME280;10839;43.206;23.550;2023-12-20T09:31:41;96774.44;;;14.24;48.20
21361;BME280;10839;43.206;23.550;2023-12-20T09:34:06;96777.97;;;14.25;47.57
21361;BME280;10839;43.206;23.550;2023-12-20T09:36:32;96775.78;;;14.51;47.62
21361;BME280;10839;43.206;23.550;2023-12-20T09:39:01;96762.72;;;14.12;46.52
21361;BME280;10839;43.206;23.550;2023-12-20T09:41:31;96756.84;;;14.15;46.78
21361;BME280;10839;43.206;23.550;2023-12-20T09:44:02;96754.72;;;14.53;46.77
21361;BME280;10839;43.206;23.550;2023-12-20T09:46:28;96751.53;;;15.27;45.37
21361;BME280;10839;43.206;23.550;2023-12-20T09:48:59;96756.59;;;14.82;45.45
21361;BME280;10839;43.206;23.550;2023-12-20T09:51:28;96747.91;;;15.68;44.46
21361;BME280;10839;43.206;23.550;2023-12-20T09:53:54;96744.56;;;16.12;43.25
21361;BME280;10839;43.206;23.550;2023-12-20T09:56:22;96742.16;;;16.27;43.37
21361;BME280;10839;43.206;23.550;2023-12-20T09:58:48;96729.63;;;16.26;42.13
21361;BME280;10839;43.206;23.550;2023-12-20T10:01:14;96720.22;;;16.17;41.93
21361;BME280;10839;43.206;23.550;2023-12-20T10:03:41;96709.28;;;16.96;41.43
21361;BME280;10839;43.206;23.550;2023-12-20T10:06:07;96719.50;;;17.39;40.24
21361;BME280;10839;43.206;23.550;2023-12-20T10:08:33;96691.97;;;18.12;39.51
21361;BME280;10839;43.206;23.550;2023-12-20T10:10:59;96702.34;;;17.71;38.79
21361;BME280;10839;43.206;23.550;2023-12-20T10:13:28;96703.69;;;18.12;38.21
21361;BME280;10839;43.206;23.550;2023-12-20T10:15:55;96688.97;;;18.30;38.24
21361;BME280;10839;43.206;23.550;2023-12-20T10:18:21;96678.75;;;16.61;39.80
21361;BME280;10839;43.206;23.550;2023-12-20T10:20:47;96684.81;;;16.51;40.17
21361;BME280;10839;43.206;23.550;2023-12-20T10:23:13;96677.59;;;16.17;41.13
21361;BME280;10839;43.206;23.550;2023-12-20T10:25:40;96668.88;;;15.29;42.61
21361;BME280;10839;43.206;23.550;2023-12-20T10:28:14;96674.53;;;15.16;43.33
21361;BME280;10839;43.206;23.550;2023-12-20T10:30:42;96670.47;;;15.49;43.56
21361;BME280;10839;43.206;23.550;2023-12-20T10:33:09;96659.25;;;15.10;43.57
21361;BME280;10839;43.206;23.550;2023-12-20T10:35:35;96658.34;;;14.34;45.45
21361;BME280;10839;43.206;23.550;2023-12-20T10:38:04;96668.81;;;14.31;45.74
21361;BME280;10839;43.206;23.550;2023-12-20T10:40:30;96661.47;;;14.49;45.54
21361;BME280;10839;43.206;23.550;2023-12-20T10:42:56;96663.88;;;14.28;46.23
21361;BME280;10839;43.206;23.550;2023-12-20T10:45:23;96648.25;;;13.82;47.24
21361;BME280;10839;43.206;23.550;2023-12-20T10:47:49;96634.97;;;13.62;47.82
21361;BME280;10839;43.206;23.550;2023-12-20T10:50:15;96639.06;;;13.83;47.69
21361;BME280;10839;43.206;23.550;2023-12-20T10:52:42;96635.44;;;14.07;47.89
21361;BME280;10839;43.206;23.550;2023-12-20T10:55:08;96641.66;;;14.78;46.93
21361;BME280;10839;43.206;23.550;2023-12-20T10:57:36;96642.69;;;15.70;45.38
21361;BME280;10839;43.206;23.550;2023-12-20T11:00:02;96635.97;;;15.61;45.35
21361;BME280;10839;43.206;23.550;2023-12-20T11:02:39;96628.47;;;16.75;43.90
21361;BME280;10839;43.206;23.550;2023-12-20T11:05:30;96628.44;;;16.30;43.74
21361;BME280;10839;43.206;23.550;2023-12-20T11:08:06;96631.31;;;16.24;44.05
21361;BME280;10839;43.206;23.550;2023-12-20T11:10:51;96632.19;;;15.73;44.98
21361;BME280;10839;43.206;23.550;2023-12-20T11:13:53;96627.03;;;15.02;45.51
21361;BME280;10839;43.206;23.550;2023-12-20T11:16:20;96615.81;;;14.64;46.76
21361;BME280;10839;43.206;23.550;2023-12-20T11:18:46;96614.91;;;15.16;45.62
21361;BME280;10839;43.206;23.550;2023-12-20T11:21:11;96622.22;;;15.04;46.00
21361;BME280;10839;43.206;23.550;2023-12-20T11:23:39;96601.38;;;14.93;46.08
21361;BME280;10839;43.206;23.550;2023-12-20T11:26:07;96625.34;;;14.44;46.55
21361;BME280;10839;43.206;23.550;2023-12-20T11:28:32;96614.44;;;14.21;47.20
21361;BME280;10839;43.206;23.550;2023-12-20T11:31:00;96599.16;;;14.26;46.97
21361;BME280;10839;43.206;23.550;2023-12-20T11:33:36;96594.25;;;14.05;47.46
21361;BME280;10839;43.206;23.550;2023-12-20T11:36:03;96597.19;;;13.74;48.17
21361;BME280;10839;43.206;23.550;2023-12-20T11:38:38;96584.22;;;13.76;47.88
21361;BME280;10839;43.206;23.550;2023-12-20T11:41:07;96588.00;;;13.75;48.02
21361;BME280;10839;43.206;23.550;2023-12-20T11:43:36;96570.56;;;13.41;49.04
21361;BME280;10839;43.206;23.550;2023-12-20T11:46:07;96577.47;;;13.19;50.13
21361;BME280;10839;43.206;23.550;2023-12-20T11:48:39;96564.78;;;13.02;50.72
21361;BME280;10839;43.206;23.550;2023-12-20T11:51:12;96567.25;;;13.39;50.29
21361;BME280;10839;43.206;23.550;2023-12-20T11:53:41;96557.81;;;12.87;51.92
21361;BME280;10839;43.206;23.550;2023-12-20T11:56:10;96545.56;;;13.10;51.70
21361;BME280;10839;43.206;23.550;2023-12-20T11:58:36;96553.22;;;12.52;53.87
21361;BME280;10839;43.206;23.550;2023-12-20T12:01:02;96547.34;;;12.12;55.87
21361;BME280;10839;43.206;23.550;2023-12-20T12:03:29;96544.63;;;12.37;55.91
21361;BME280;10839;43.206;23.550;2023-12-20T12:05:55;96533.63;;;12.38;56.23
21361;BME280;10839;43.206;23.550;2023-12-20T12:08:21;96533.34;;;11.97;57.55
21361;BME280;10839;43.206;23.550;2023-12-20T12:10:46;96532.56;;;12.39;57.04
21361;BME280;10839;43.206;23.550;2023-12-20T12:13:12;96537.94;;;12.39;57.19
21361;BME280;10839;43.206;23.550;2023-12-20T12:15:39;96531.81;;;12.32;57.72
21361;BME280;10839;43.206;23.550;2023-12-20T12:18:05;96524.19;;;12.23;58.60
21361;BME280;10839;43.206;23.550;2023-12-20T12:20:31;96515.19;;;12.11;59.02
21361;BME280;10839;43.206;23.550;2023-12-20T12:23:05;96508.56;;;12.31;58.72
21361;BME280;10839;43.206;23.550;2023-12-20T12:25:32;96515.19;;;12.35;58.56
21361;BME280;10839;43.206;23.550;2023-12-20T12:27:59;96502.09;;;12.14;59.49
21361;BME280;10839;43.206;23.550;2023-12-20T12:30:25;96514.19;;;12.72;58.54
21361;BME280;10839;43.206;23.550;2023-12-20T12:32:52;96497.25;;;13.49;56.80
21361;BME280;10839;43.206;23.550;2023-12-20T12:35:18;96504.16;;;13.63;55.46
21361;BME280;10839;43.206;23.550;2023-12-20T12:37:44;96507.09;;;13.62;54.99
21361;BME280;10839;43.206;23.550;2023-12-20T12:40:10;96502.75;;;13.43;54.89
21361;BME280;10839;43.206;23.550;2023-12-20T12:42:37;96490.38;;;13.06;54.81
21361;BME280;10839;43.206;23.550;2023-12-20T12:45:03;96496.03;;;12.79;56.19
21361;BME280;10839;43.206;23.550;2023-12-20T12:47:30;96503.69;;;13.01;55.96
21361;BME280;10839;43.206;23.550;2023-12-20T12:49:55;96485.06;;;12.93;56.38